Time;durP1;ratioP1;P1;durP2;ratioP2;P2;SDS_P1;SDS_P2;PMS_P1;PMS_P2;Temp;Humidity;BMP_temperature;BMP_pressure;BME280_temperature;BME280_humidity;BME280_pressure;Samples;Min_cycle;Max_cycle;Signal;HPM_P1;HPM_P2
2021/04/20 12:59:23;;;;;;;8.32;6.57;;;24.90;51.70;;;;;;5128884;27;20308;-74
2021/04/20 13:01:54;;;;;;;8.13;6.28;;;24.50;50.90;;;;;;5128365;27;20035;-76
2021/04/20 13:04:35;;;;;;;7.85;6.00;;;24.30;50.60;;;;;;5114492;28;20030;-75
2021/04/20 13:07:02;;;;;;;7.90;6.57;;;24.30;49.70;;;;;;5103850;28;20046;-76
2021/04/20 13:09:35;;;;;;;9.25;6.75;;;24.10;50.10;;;;;;5107992;28;20028;-76
2021/04/20 13:12:12;;;;;;;7.35;6.57;;;23.80;50.90;;;;;;5090322;28;20042;-76
2021/04/20 13:14:40;;;;;;;9.05;5.70;;;24.00;50.30;;;;;;5107928;28;20439;-76
2021/04/20 13:17:07;;;;;;;7.15;6.03;;;24.30;49.40;;;;;;5094614;28;20020;-76
2021/04/20 13:19:38;;;;;;;6.97;5.53;;;23.90;49.70;;;;;;5107356;28;20055;-76
2021/04/20 13:22:06;;;;;;;6.47;5.13;;;23.30;50.30;;;;;;5097811;28;20084;-76
2021/04/20 13:24:34;;;;;;;8.82;5.38;;;23.60;50.70;;;;;;5096672;28;20024;-76
2021/04/20 13:27:01;;;;;;;9.90;6.10;;;25.00;49.70;;;;;;5107720;28;20028;-76
2021/04/20 13:29:28;;;;;;;7.53;6.05;;;26.20;48.70;;;;;;5107760;28;20030;-75
2021/04/20 13:31:56;;;;;;;6.95;6.22;;;27.50;47.50;;;;;;5108113;28;20095;-75
2021/04/20 13:34:24;;;;;;;6.68;5.22;;;28.40;46.10;;;;;;5106914;28;20081;-76
2021/04/20 13:36:51;;;;;;;7.35;6.05;;;29.50;45.30;;;;;;5107498;28;20042;-75
2021/04/20 13:39:23;;;;;;;9.05;6.85;;;29.70;44.40;;;;;;5107188;28;20023;-75
2021/04/20 13:41:57;;;;;;;7.40;6.38;;;29.60;43.50;;;;;;5107217;28;20391;-75
2021/04/20 13:44:30;;;;;;;7.63;6.82;;;29.50;44.10;;;;;;5106779;28;20113;-75
2021/04/20 13:46:58;;;;;;;7.70;6.90;;;29.80;43.90;;;;;;5108342;28;20024;-76
2021/04/20 13:49:24;;;;;;;10.50;7.32;;;28.70;44.30;;;;;;5107955;28;20077;-74
2021/04/20 13:52:11;;;;;;;6.32;5.65;;;28.90;44.40;;;;;;5108250;28;20031;-77
2021/04/20 13:54:40;;;;;;;8.23;6.65;;;29.90;43.70;;;;;;5108772;28;20077;-75
2021/04/20 13:57:08;;;;;;;8.15;7.05;;;30.30;43.50;;;;;;5109526;28;20042;-77
2021/04/20 13:59:39;;;;;;;8.40;6.32;;;29.30;43.30;;;;;;5110553;28;20464;-78
2021/04/20 14:02:12;;;;;;;8.88;6.57;;;27.50;44.30;;;;;;5120624;28;20077;-77
2021/04/20 14:04:52;;;;;;;9.95;7.57;;;26.80;45.70;;;;;;5131175;27;20161;-78
2021/04/20 14:07:24;;;;;;;12.02;9.65;;;25.90;47.30;;;;;;5108084;28;20115;-78
2021/04/20 14:09:55;;;;;;;9.15;7.30;;;24.50;48.90;;;;;;5099436;28;20039;-78
2021/04/20 14:12:44;;;;;;;11.05;6.72;;;23.50;50.60;;;;;;5096242;28;20042;-76
2021/04/20 14:15:16;;;;;;;10.90;7.22;;;22.80;51.00;;;;;;5095089;28;20020;-77
2021/04/20 14:17:59;;;;;;;9.97;6.87;;;22.70;52.10;;;;;;5095234;28;20374;-76
2021/04/20 14:20:31;;;;;;;7.82;6.80;;;22.00;54.10;;;;;;5072938;28;20396;-79
2021/04/20 14:23:09;;;;;;;10.17;7.07;;;22.70;52.90;;;;;;5094446;28;20020;-76
2021/04/20 14:25:38;;;;;;;11.15;6.88;;;22.70;52.30;;;;;;5094116;28;20254;-77
2021/04/20 14:28:06;;;;;;;10.25;6.43;;;22.50;52.20;;;;;;5094226;28;20028;-75
2021/04/20 14:30:33;;;;;;;9.15;7.05;;;22.20;53.70;;;;;;5093937;28;20024;-76
2021/04/20 14:33:00;;;;;;;9.43;7.13;;;21.80;54.00;;;;;;5094892;28;20158;-76
2021/04/20 14:35:36;;;;;;;8.27;6.22;;;21.20;55.50;;;;;;5076293;28;20032;-76
2021/04/20 14:38:04;;;;;;;13.50;7.30;;;21.20;54.70;;;;;;5094310;28;20491;-75
2021/04/20 14:40:31;;;;;;;10.65;6.53;;;21.50;55.80;;;;;;5092972;28;20034;-77
2021/04/20 14:42:59;;;;;;;8.60;6.43;;;22.70;53.70;;;;;;5094436;28;20074;-75
2021/04/20 14:45:31;;;;;;;8.77;6.63;;;23.80;51.40;;;;;;5093570;28;20032;-75
2021/04/20 14:48:19;;;;;;;7.32;5.65;;;23.90;49.70;;;;;;5084703;28;20040;-76
2021/04/20 14:50:46;;;;;;;6.95;5.55;;;24.40;49.70;;;;;;5058007;28;20275;-75
2021/04/20 14:53:15;;;;;;;7.53;5.68;;;24.30;49.30;;;;;;5093516;28;20036;-76
2021/04/20 14:55:51;;;;;;;7.13;5.57;;;24.50;50.00;;;;;;5093186;28;20511;-76
2021/04/20 14:58:24;;;;;;;6.68;5.55;;;25.20;48.30;;;;;;5075922;28;20032;-75
2021/04/20 15:00:51;;;;;;;9.75;5.95;;;26.40;47.30;;;;;;5092884;28;20108;-75
2021/04/20 15:03:24;;;;;;;5.85;5.00;;;26.70;46.40;;;;;;5113480;28;20396;-75
2021/04/20 15:05:56;;;;;;;6.03;4.95;;;27.60;45.50;;;;;;5113749;28;20085;-75
2021/04/20 15:08:27;;;;;;;8.07;5.63;;;28.90;45.00;;;;;;5113505;28;20058;-76
2021/04/20 15:10:54;;;;;;;8.02;5.60;;;29.10;44.00;;;;;;5112780;28;20027;-77
2021/04/20 15:13:28;;;;;;;6.93;5.72;;;28.70;43.20;;;;;;5100918;28;20519;-76
2021/04/20 15:15:58;;;;;;;13.93;8.43;;;28.70;43.00;;;;;;5092750;28;20032;-76
2021/04/20 15:18:30;;;;;;;6.47;4.65;;;28.30;43.10;;;;;;5092442;28;20423;-75
2021/04/20 15:21:07;;;;;;;6.75;4.55;;;27.40;43.50;;;;;;5068375;28;20028;-74
2021/04/20 15:24:06;;;;;;;5.32;4.60;;;29.50;43.20;;;;;;5094343;28;20080;-75
2021/04/20 15:26:40;;;;;;;7.53;5.70;;;30.50;42.00;;;;;;5057069;28;20066;-77
2021/04/20 15:29:09;;;;;;;8.73;5.30;;;29.70;41.60;;;;;;5087797;28;20027;-77
2021/04/20 15:31:40;;;;;;;6.03;5.30;;;28.80;42.50;;;;;;5093038;28;20024;-75
2021/04/20 15:34:14;;;;;;;7.37;4.67;;;28.30;42.60;;;;;;5092538;28;20539;-77
2021/04/20 15:36:45;;;;;;;6.78;4.95;;;28.30;42.90;;;;;;5092387;28;20028;-75
2021/04/20 15:39:12;;;;;;;7.28;5.20;;;28.40;42.90;;;;;;5092437;28;20024;-77
2021/04/20 15:41:50;;;;;;;7.45;6.05;;;29.10;42.20;;;;;;5057169;28;20051;-76
2021/04/20 15:44:22;;;;;;;6.75;5.13;;;29.20;41.70;;;;;;5092589;28;20060;-76
2021/04/20 15:46:52;;;;;;;8.52;4.90;;;29.20;42.00;;;;;;5074545;28;20057;-75
2021/04/20 15:49:32;;;;;;;6.97;5.03;;;27.70;42.80;;;;;;5092319;28;20055;-75
2021/04/20 15:52:00;;;;;;;5.28;4.72;;;27.60;43.80;;;;;;5092734;28;20085;-76
2021/04/20 15:54:28;;;;;;;6.32;4.63;;;27.70;43.10;;;;;;5092163;28;20441;-76
2021/04/20 15:57:05;;;;;;;6.47;4.97;;;27.70;43.60;;;;;;5074033;28;20489;-75
2021/04/20 15:59:42;;;;;;;7.38;5.50;;;28.20;42.70;;;;;;5091882;28;20534;-76
2021/04/20 16:02:16;;;;;;;6.07;4.72;;;28.00;42.40;;;;;;5103340;28;20034;-76
2021/04/20 16:04:46;;;;;;;7.80;5.78;;;28.50;42.70;;;;;;5110549;28;20098;-75
2021/04/20 16:07:11;;;;;;;7.53;5.07;;;28.10;42.00;;;;;;5074076;28;20127;-76
2021/04/20 16:09:47;;;;;;;6.40;5.18;;;27.30;42.00;;;;;;5091118;28;20582;-76
2021/04/20 16:12:13;;;;;;;6.68;5.70;;;25.90;44.10;;;;;;5092332;28;20400;-76
2021/04/20 16:14:45;;;;;;;9.93;5.68;;;24.60;45.90;;;;;;5092127;28;20469;-77
2021/04/20 16:17:17;;;;;;;6.57;5.30;;;24.00;47.30;;;;;;5091733;28;20046;-76
2021/04/20 16:19:44;;;;;;;9.80;5.30;;;23.30;48.60;;;;;;5091315;28;20592;-75
2021/04/20 16:22:13;;;;;;;8.02;5.22;;;23.10;48.80;;;;;;5073196;28;20103;-76
2021/04/20 16:24:45;;;;;;;7.03;4.65;;;23.00;48.70;;;;;;5091168;28;20024;-75
2021/04/20 16:27:17;;;;;;;7.93;4.22;;;23.90;47.40;;;;;;5093415;28;20035;-78
2021/04/20 16:29:46;;;;;;;5.60;4.38;;;25.20;45.60;;;;;;5072094;28;20635;-74
2021/04/20 16:32:17;;;;;;;6.45;4.50;;;25.90;44.60;;;;;;5054152;28;20098;-76
2021/04/20 16:34:44;;;;;;;5.13;4.20;;;26.00;45.10;;;;;;5071544;28;20032;-76
2021/04/20 16:37:39;;;;;;;6.68;4.43;;;25.30;45.20;;;;;;5083523;28;20519;-76
2021/04/20 16:40:23;;;;;;;5.53;4.10;;;25.50;45.10;;;;;;5090800;28;20370;-75
2021/04/20 16:43:40;;;;;;;5.45;4.18;;;26.20;44.20;;;;;;5086013;28;20019;-75
2021/04/20 16:46:28;;;;;;;7.00;4.80;;;26.60;43.70;;;;;;5088996;28;20028;-74
2021/04/20 16:49:20;;;;;;;6.07;4.20;;;26.20;43.30;;;;;;5090950;28;20056;-73
2021/04/20 16:51:52;;;;;;;;;;;26.80;43.40;;;;;;5086232;28;20099;-73
2021/04/20 16:54:43;;;;;;;6.15;4.20;;;27.50;42.90;;;;;;5091415;28;19904;-72
2021/04/20 16:57:26;;;;;;;7.18;4.82;;;26.80;43.00;;;;;;5091308;28;20040;-75
2021/04/20 17:00:21;;;;;;;5.50;4.03;;;26.80;43.00;;;;;;5070635;28;20176;-74
2021/04/20 17:03:14;;;;;;;4.40;3.50;;;26.50;42.70;;;;;;5086956;28;20024;-75
2021/04/20 17:06:02;;;;;;;7.88;4.22;;;26.50;43.30;;;;;;5090461;28;20102;-76
2021/04/20 17:08:43;;;;;;;6.30;4.28;;;26.20;43.50;;;;;;5089345;28;20095;-76
2021/04/20 17:11:24;;;;;;;7.93;4.05;;;26.50;43.20;;;;;;5086988;28;20047;-76
2021/04/20 17:14:04;;;;;;;6.45;4.45;;;26.80;43.00;;;;;;5089409;28;20047;-76
2021/04/20 17:17:07;;;;;;;5.32;3.70;;;26.60;42.60;;;;;;5090952;28;20101;-79
2021/04/20 17:20:10;;;;;;;7.28;4.10;;;26.40;43.30;;;;;;5071081;28;20055;-75
2021/04/20 17:22:45;;;;;;;5.18;3.60;;;25.50;44.30;;;;;;5090127;28;20043;-75
2021/04/20 17:25:10;;;;;;;4.25;3.53;;;25.20;44.40;;;;;;5090414;28;20028;-76
2021/04/20 17:28:01;;;;;;;4.85;3.35;;;24.90;44.70;;;;;;5090551;28;20096;-75
2021/04/20 17:30:42;;;;;;;5.38;3.58;;;24.40;45.70;;;;;;5088509;28;20020;-75
2021/04/20 17:33:08;;;;;;;5.47;3.70;;;24.30;45.70;;;;;;5088910;28;20039;-75
2021/04/20 17:35:42;;;;;;;5.72;3.20;;;24.30;46.20;;;;;;5090810;28;20599;-75
2021/04/20 17:38:29;;;;;;;6.13;3.90;;;23.70;46.20;;;;;;5088925;28;20024;-75
2021/04/20 17:41:20;;;;;;;4.90;3.42;;;23.40;46.00;;;;;;5085915;28;20063;-77
2021/04/20 17:44:01;;;;;;;5.13;3.13;;;23.30;46.80;;;;;;5067286;28;20450;-77
2021/04/20 17:46:57;;;;;;;4.82;3.25;;;23.30;47.30;;;;;;5052728;28;20112;-76
2021/04/20 17:49:42;;;;;;;6.53;3.42;;;22.90;47.50;;;;;;5052918;28;20055;-76
2021/04/20 17:52:21;;;;;;;5.05;3.10;;;22.50;48.00;;;;;;5071531;28;20008;-77
2021/04/20 17:54:50;;;;;;;4.05;3.15;;;22.20;49.20;;;;;;5071082;28;20050;-76
2021/04/20 17:57:35;;;;;;;6.25;3.80;;;22.10;49.80;;;;;;5070711;28;20098;-76
2021/04/20 18:00:24;;;;;;;5.05;3.35;;;21.40;49.30;;;;;;5070129;28;20016;-75
2021/04/20 18:03:21;;;;;;;6.05;2.90;;;20.50;50.90;;;;;;5069802;28;20107;-75
2021/04/20 18:06:17;;;;;;;6.00;2.95;;;19.20;52.50;;;;;;5052722;28;20016;-75
2021/04/20 18:09:16;;;;;;;4.00;2.90;;;19.10;54.00;;;;;;5070022;28;20031;-75
2021/04/20 18:12:20;;;;;;;4.95;2.92;;;18.50;55.50;;;;;;5069178;28;20028;-75
2021/04/20 18:15:21;;;;;;;3.85;2.85;;;18.00;57.00;;;;;;5051950;28;20029;-75
2021/04/20 18:18:11;;;;;;;4.60;2.75;;;17.50;58.50;;;;;;5070531;28;20388;-76
2021/04/20 18:21:14;;;;;;;5.30;3.35;;;17.20;59.70;;;;;;5051077;28;20031;-76
2021/04/20 18:24:17;;;;;;;5.93;2.75;;;16.80;61.20;;;;;;5069910;28;20020;-76
2021/04/20 18:27:01;;;;;;;3.97;2.80;;;16.40;61.60;;;;;;5052547;28;20032;-77
2021/04/20 18:29:33;;;;;;;4.38;2.70;;;16.10;64.60;;;;;;5069360;28;20024;-76
2021/04/20 18:32:22;;;;;;;3.05;2.30;;;15.80;65.60;;;;;;5091089;28;20638;-76
2021/04/20 18:35:16;;;;;;;6.10;2.92;;;15.50;67.00;;;;;;5088713;28;20107;-76
2021/04/20 18:38:00;;;;;;;5.32;2.60;;;15.30;66.20;;;;;;5093863;28;20478;-76
2021/04/20 18:40:28;;;;;;;5.25;3.20;;;15.10;70.00;;;;;;5092550;28;20031;-76
2021/04/20 18:43:11;;;;;;;4.32;3.03;;;15.00;72.70;;;;;;5093501;28;20027;-76
2021/04/20 18:45:50;;;;;;;4.57;3.00;;;14.60;76.10;;;;;;5094003;28;20020;-76
2021/04/20 18:48:53;;;;;;;5.30;2.67;;;14.30;80.50;;;;;;5093804;28;20107;-76
2021/04/20 18:52:03;;;;;;;5.25;2.95;;;14.00;86.70;;;;;;5057814;28;20385;-76
2021/04/20 18:55:05;;;;;;;6.35;3.00;;;13.80;94.90;;;;;;4995041;28;20030;-76
